Main page
METAR-TAF:

METAR-TAF

Airports :

Morón Air Base

Morón de la Frontera, Spain

latitude: 37-09N, longitude: 005-37W, elevation: 87 m

Current weather observation

The report was made 32 minutes ago, at 08:30 UTC
Wind 7 kt from the North/Northeast, varying between North/Northwest and East/Northeast
Temperature 23°C
Humidity 38%
Pressure 1021 hPa
Visibility 10 km or more
no clouds below 1500 m and no cumulonimbus

METAR: LEMO 180830Z 03007KT 340V070 CAVOK 23/08 Q1021 NOSIG

Time: 11:02 (09:02 UTC)

Forecast

The report was made 1 hour and 2 minutes ago, at 08:00 UTC
Forecast valid from 18 at 09 UTC to 19 at 09 UTC
Wind 9 kt from the West
Visibility 10 km or more
no clouds below 1500 m and no cumulonimbus

TAF: LEMO 180800Z 1809/1909 28009KT CAVOK TX34/1815Z TN19/1905Z

Weather observations and forecasts of more than 4000 airports (METAR and TAF reports).

The available stations are represented by yellow and red dots on the map.

Hover mouse over dot to see the name of the station.

Then click to see weather observations and forecasts.

To change the map : click on the green buttons with a black cross to zoom in, on the green button with a dash to zoom out, or on the green arrows for adjacent maps.


METAR-TAF: